Canaan, Mississippi
Current Conditions -  °F | °C
As of 12:15 PM on Thursday 30 Oct 2014 (Local Time) from KUOX Reporting Station
Clear Clear  
Wind Chill: 64°   Ceiling: Unl
Heat Index: 64°   Visibility: 10mi
Dew Point: 36°   Wind: 6mph
Humidity: 34%   Direction: 320°NW
Pressure: 30.16"   Gusts: NA
Location:  34.7855°N, 89.1846°W
Report Text: KUOX 301715Z AUTO 32005KT 10SM CLR 18/02 A3016 RMK AO2 PWINO PNO
Loading
Personal Weather Stations






























Interactive Weather Map
Tropical Storm Tracking
New forecast layout! Learn more

10-Day Weather Forecast

Advertisements
Track Severe Weather on mobile